Главная страница
METAR-TAF:

METAR-TAF

Аэропорты :

Часлав, Чехия

широта: 49-56-23N, долгота: 15-22-55E, высота над уровнем моря: 242 м

Текущие метеонаблюдения

Эта сводка был подготовлена 1 час и 3 минут назад, в 20:00 UTC
Ветер 9 Узел от северно-северо-западный
Температура 25°C
Влажность 50%
Давление 1017 hPa
Видимость 10 км и более
Нет облачности ниже 1500 м, и нет кучево-дождевой облачности

METAR: LKCV 202000Z 33009KT CAVOK 25/14 Q1017 NOSIG RMK BLU BLU

Время: 23:03 (21:03 UTC)

Прогноз

Эта сводка был подготовлена 4 часа и 3 минут назад, в 17:00 UTC
Прогноз действительный с 20-го 18 UTC до 21-го 18 UTC
Ветер 9 Узел от северно-северо-западный
Видимость 10 км и более
Нет облачности ниже 1500 м, и нет кучево-дождевой облачности
изменения
С 20-го 21 UTC до 20-го 23 UTC
Ветер 5 Узел от северно-северо-западный
временами
С 21-го 12 UTC до 21-го 18 UTC
Ветер 8 Узел от северно-северо-западный

TAF: LKCV 201700Z 2018/2118 33009KT CAVOK BECMG 2021/2023 33005KT TEMPO 2112/2118 34008KT

Метеонаблюдения и прогнозы для более 4000 аэропортов (сводки METAR и TAF).

Имеющиеся станции представлены на карте желтыми и красными точками.

Чтобы увидеть название станции, наведите на нее мышь.

Затем щелкните, чтобы увидеть метеонаблюдения и метеопрогнозы.

Управление картой: чтобы увеличить масштаб, щелкните зеленые кнопки с черным крестиком; чтобы уменьшить масштаб, щелкните зеленую кнопку с тире; для просмотра соседних карт щелкайте зеленые стрелки.


METAR-TAF: